Wetterdaten: Woche 26.11.12 - 02.12.12 (KW48)
Datum Zeit Temp. Innen Temp. Aussen Temp. 2 +5cm Bl.Temp 1 Feuchte Auss Feuchte 2 BlattFeu 1 Luftdruck Regen Sonnenschein T Regendauer ET UV Solar Windben Empfang
26.11.2012 00:00 14,8 C 7,9 C -22,4 C 4,6 C 0,0 C 84 % 80 % 0 lf 1010,9 hPa 0,0 l/m 0,00 h 0,00 h 0,000 mm 0,0 UV-I 0 W/m 7,4 km/h (2 Bft) 0,00 %
26.11.2012 01:00 14,8 C 7,4 C -22,4 C 3,9 C 0,0 C 84 % 79 % 0 lf 1010,2 hPa 0,0 l/m 0,00 h 0,00 h 0,000 mm 0,0 UV-I 0 W/m 2,5 km/h (1 Bft) 0,00 %
26.11.2012 02:00 14,7 C 6,4 C -22,6 C 2,8 C 0,0 C 86 % 79 % 0 lf 1009,9 hPa 0,0 l/m 0,00 h 0,00 h 0,000 mm 0,0 UV-I 0 W/m 5,0 km/h (1 Bft) 0,00 %
26.11.2012 03:00 14,6 C 5,6 C -22,6 C 2,2 C 0,0 C 88 % 79 % 0 lf 1009,4 hPa 0,0 l/m 0,00 h 0,00 h 0,000 mm 0,0 UV-I 0 W/m 6,5 km/h (2 Bft) 0,00 %
26.11.2012 04:00 14,4 C 4,8 C -22,7 C 2,0 C 0,0 C 90 % 79 % 0 lf 1008,8 hPa 0,0 l/m 0,00 h 0,00 h 0,000 mm 0,0 UV-I 0 W/m 8,9 km/h (2 Bft) 0,00 %
26.11.2012 05:00 14,3 C 4,3 C -22,7 C 1,8 C 0,0 C 91 % 79 % 0 lf 1008,2 hPa 0,0 l/m 0,00 h 0,00 h 0,000 mm 0,0 UV-I 0 W/m 8,7 km/h (2 Bft) 0,00 %
26.11.2012 06:00 14,3 C 4,4 C -22,7 C 1,9 C 0,0 C 92 % 79 % 0 lf 1008,1 hPa 0,0 l/m 0,00 h 0,00 h 0,000 mm 0,0 UV-I 0 W/m 11,0 km/h (2 Bft) 0,00 %
26.11.2012 07:00 14,2 C 4,8 C -22,6 C 2,6 C 0,0 C 92 % 80 % 0 lf 1007,0 hPa 0,0 l/m 0,00 h 0,00 h 0,000 mm 0,0 UV-I 0 W/m 11,9 km/h (2 Bft) 0,00 %
26.11.2012 08:00 14,3 C 5,4 C -22,5 C 3,6 C 0,0 C 92 % 80 % 0 lf 1006,6 hPa 0,0 l/m 0,00 h 0,00 h 0,000 mm 0,0 UV-I 0 W/m 10,9 km/h (2 Bft) 0,00 %
26.11.2012 09:00 14,3 C 6,3 C -0,2 C 4,7 C 0,0 C 91 % 76 % 0 lf 1005,6 hPa 0,2 l/m 0,00 h 0,00 h 0,000 mm 0,0 UV-I 0 W/m 12,9 km/h (3 Bft) 0,00 %
26.11.2012 10:00 14,4 C 6,7 C 3,3 C 5,4 C 0,0 C 93 % 76 % 0 lf 1005,1 hPa 2,8 l/m 0,00 h 0,00 h 0,000 mm 0,0 UV-I 0 W/m 15,9 km/h (3 Bft) 0,00 %
26.11.2012 11:00 14,4 C 7,0 C -17,3 C 6,2 C 0,0 C 95 % 81 % 0 lf 1004,8 hPa 1,1 l/m 0,00 h 0,00 h 0,000 mm 0,0 UV-I 0 W/m 12,6 km/h (3 Bft) 0,00 %
26.11.2012 12:00 14,5 C 7,5 C -3,4 C 6,8 C 0,0 C 96 % 79 % 0 lf 1004,0 hPa 0,4 l/m 0,00 h 0,00 h 0,000 mm 0,0 UV-I 0 W/m 10,9 km/h (2 Bft) 0,00 %
26.11.2012 13:00 14,7 C 8,0 C -22,2 C 7,7 C 0,0 C 96 % 83 % 0 lf 1003,3 hPa 0,0 l/m 0,00 h 0,00 h 0,000 mm 0,0 UV-I 0 W/m 10,2 km/h (2 Bft) 0,00 %
26.11.2012 14:00 15,0 C 8,6 C -22,2 C 8,3 C 0,0 C 96 % 84 % 0 lf 1002,5 hPa 0,0 l/m 0,00 h 0,00 h 0,000 mm 0,0 UV-I 0 W/m 9,6 km/h (2 Bft) 0,00 %
26.11.2012 15:00 15,0 C 8,8 C -22,2 C 8,0 C 0,0 C 96 % 84 % 0 lf 1002,0 hPa 0,0 l/m 0,00 h 0,00 h 0,000 mm 0,0 UV-I 0 W/m 9,4 km/h (2 Bft) 0,00 %
26.11.2012 16:00 15,0 C 8,5 C -22,2 C 6,9 C 0,0 C 96 % 84 % 0 lf 1001,9 hPa 0,0 l/m 0,00 h 0,00 h 0,000 mm 0,0 UV-I 0 W/m 8,7 km/h (2 Bft) 0,00 %
26.11.2012 17:00 14,8 C 8,5 C -22,2 C 6,9 C 0,0 C 97 % 84 % 0 lf 1001,7 hPa 0,0 l/m 0,00 h 0,00 h 0,000 mm 0,0 UV-I 0 W/m 8,6 km/h (2 Bft) 0,00 %
26.11.2012 18:00 14,7 C 8,4 C -22,2 C 6,3 C 0,0 C 97 % 84 % 0 lf 1001,4 hPa 0,0 l/m 0,00 h 0,00 h 0,000 mm 0,0 UV-I 0 W/m 6,1 km/h (2 Bft) 0,00 %
26.11.2012 19:00 14,6 C 8,4 C -22,2 C 6,4 C 0,0 C 97 % 84 % 0 lf 1001,6 hPa 0,0 l/m 0,00 h 0,00 h 0,000 mm 0,0 UV-I 0 W/m 3,3 km/h (1 Bft) 0,00 %
26.11.2012 20:00 14,6 C 8,3 C -22,3 C 5,7 C 0,0 C 96 % 84 % 0 lf 1001,7 hPa 0,0 l/m 0,00 h 0,00 h 0,000 mm 0,0 UV-I 0 W/m 2,4 km/h (1 Bft) 0,00 %
26.11.2012 21:00 14,4 C 9,2 C -22,1 C 6,1 C 0,0 C 95 % 84 % 0 lf 1002,0 hPa 0,0 l/m 0,00 h 0,00 h 0,000 mm 0,0 UV-I 0 W/m 4,6 km/h (1 Bft) 0,00 %
26.11.2012 22:00 14,3 C 9,2 C -22,2 C 5,9 C 0,0 C 92 % 84 % 0 lf 1002,2 hPa 0,0 l/m 0,00 h 0,00 h 0,000 mm 0,0 UV-I 0 W/m 1,9 km/h (1 Bft) 0,00 %
26.11.2012 23:00 14,2 C 8,6 C -22,3 C 5,2 C 0,0 C 91 % 84 % 0 lf 1002,3 hPa 0,0 l/m 0,00 h 0,00 h 0,000 mm 0,0 UV-I 0 W/m 2,8 km/h (1 Bft) 0,00 %
27.11.2012 00:00 14,1 C 8,1 C -22,3 C 5,4 C 0,0 C 90 % 84 % 0 lf 1002,2 hPa 0,0 l/m 0,00 h 0,00 h 0,000 mm 0,0 UV-I 0 W/m 3,7 km/h (1 Bft) 0,00 %
27.11.2012 01:00 14,2 C 8,2 C -22,2 C 5,8 C 0,0 C 90 % 84 % 0 lf 1001,9 hPa 0,0 l/m 0,00 h 0,00 h 0,000 mm 0,0 UV-I 0 W/m 3,1 km/h (1 Bft) 0,00 %
27.11.2012 02:00 14,2 C 8,5 C -22,2 C 6,0 C 0,0 C 88 % 84 % 0 lf 1001,7 hPa 0,0 l/m 0,00 h 0,00 h 0,000 mm 0,0 UV-I 0 W/m 5,0 km/h (1 Bft) 0,00 %
27.11.2012 03:00 14,2 C 8,5 C -22,2 C 6,1 C 0,0 C 87 % 84 % 0 lf 1001,6 hPa 0,0 l/m 0,00 h 0,00 h 0,000 mm 0,0 UV-I 0 W/m 5,4 km/h (1 Bft) 0,00 %
27.11.2012 04:00 14,2 C 8,0 C -22,2 C 5,9 C 0,0 C 87 % 84 % 0 lf 1001,6 hPa 0,0 l/m 0,00 h 0,00 h 0,000 mm 0,0 UV-I 0 W/m 4,5 km/h (1 Bft) 0,00 %
27.11.2012 05:00 14,2 C 8,0 C -22,3 C 5,9 C 0,0 C 87 % 84 % 0 lf 1001,7 hPa 0,0 l/m 0,00 h 0,00 h 0,000 mm 0,0 UV-I 0 W/m 3,2 km/h (1 Bft) 0,00 %
27.11.2012 06:00 14,2 C 8,0 C -22,3 C 5,7 C 0,0 C 87 % 84 % 0 lf 1001,7 hPa 0,0 l/m 0,00 h 0,00 h 0,000 mm 0,0 UV-I 0 W/m 3,8 km/h (1 Bft) 0,00 %
27.11.2012 07:00 14,1 C 8,0 C -22,3 C 5,4 C 0,0 C 87 % 84 % 0 lf 1001,8 hPa 0,0 l/m 0,00 h 0,00 h 0,000 mm 0,0 UV-I 0 W/m 2,9 km/h (1 Bft) 0,00 %
27.11.2012 08:00 14,1 C 7,6 C -22,3 C 5,1 C 0,0 C 87 % 84 % 0 lf 1002,5 hPa 0,0 l/m 0,00 h 0,00 h 0,000 mm 0,0 UV-I 0 W/m 0,9 km/h (0 Bft) 0,00 %
27.11.2012 09:00 14,1 C 8,1 C -22,2 C 6,1 C 0,0 C 87 % 84 % 0 lf 1003,0 hPa 0,0 l/m 0,00 h 0,00 h 0,000 mm 0,0 UV-I 0 W/m 3,3 km/h (1 Bft) 0,00 %
27.11.2012 10:00 14,2 C 8,7 C -5,0 C 7,3 C 0,0 C 86 % 80 % 0 lf 1003,5 hPa 0,0 l/m 0,00 h 0,00 h 0,000 mm 0,0 UV-I 0 W/m 1,6 km/h (1 Bft) 0,00 %
27.11.2012 11:00 14,3 C 8,8 C 0,1 C 7,6 C 0,0 C 86 % 79 % 0 lf 1003,8 hPa 0,1 l/m 0,00 h 0,00 h 0,000 mm 0,0 UV-I 0 W/m 2,3 km/h (1 Bft) 0,00 %
27.11.2012 12:00 14,3 C 8,8 C -22,0 C 8,1 C 0,0 C 87 % 84 % 0 lf 1003,5 hPa 0,0 l/m 0,00 h 0,00 h 0,000 mm 0,0 UV-I 0 W/m 0,4 km/h (0 Bft) 0,00 %
27.11.2012 13:00 14,7 C 9,8 C -22,0 C 8,4 C 0,1 C 81 % 85 % 0 lf 1003,4 hPa 0,1 l/m 0,00 h 0,00 h 0,000 mm 0,2 UV-I 0 W/m 2,9 km/h (1 Bft) 0,00 %
27.11.2012 14:00 15,5 C 10,5 C -22,0 C 8,3 C 0,0 C 74 % 85 % 0 lf 1003,7 hPa 0,0 l/m 0,00 h 0,00 h 0,000 mm 0,0 UV-I 0 W/m 4,0 km/h (1 Bft) 0,00 %
27.11.2012 15:00 16,0 C 9,6 C -22,2 C 6,7 C 0,0 C 73 % 83 % 0 lf 1003,1 hPa 0,0 l/m 0,00 h 0,00 h 0,000 mm 0,0 UV-I 0 W/m 0,4 km/h (0 Bft) 0,00 %
27.11.2012 16:00 15,5 C 8,5 C -22,2 C 6,1 C 0,0 C 79 % 83 % 0 lf 1003,3 hPa 0,0 l/m 0,00 h 0,00 h 0,000 mm 0,0 UV-I 0 W/m 0,0 km/h (0 Bft) 0,00 %
27.11.2012 17:00 15,1 C 8,0 C -22,3 C 5,8 C 0,0 C 82 % 83 % 0 lf 1003,7 hPa 0,0 l/m 0,00 h 0,00 h 0,000 mm 0,0 UV-I 0 W/m 0,0 km/h (0 Bft) 0,00 %
27.11.2012 18:00 14,8 C 7,6 C -22,4 C 4,2 C 0,0 C 84 % 82 % 0 lf 1003,9 hPa 0,0 l/m 0,00 h 0,00 h 0,000 mm 0,0 UV-I 0 W/m 0,1 km/h (0 Bft) 0,00 %
27.11.2012 19:00 14,6 C 6,9 C -22,4 C 3,7 C 0,0 C 86 % 82 % 0 lf 1004,4 hPa 0,0 l/m 0,00 h 0,00 h 0,000 mm 0,0 UV-I 0 W/m 0,0 km/h (0 Bft) 0,00 %
27.11.2012 20:00 14,5 C 6,1 C -22,6 C 2,6 C 0,0 C 87 % 82 % 0 lf 1004,6 hPa 0,0 l/m 0,00 h 0,00 h 0,000 mm 0,0 UV-I 0 W/m 0,0 km/h (0 Bft) 0,00 %
27.11.2012 21:00 14,3 C 5,5 C -22,5 C 3,2 C 0,0 C 89 % 82 % 0 lf 1004,8 hPa 0,0 l/m 0,00 h 0,00 h 0,000 mm 0,0 UV-I 0 W/m 0,0 km/h (0 Bft) 0,00 %
27.11.2012 22:00 14,4 C 5,5 C -22,6 C 3,5 C 0,0 C 91 % 82 % 0 lf 1005,3 hPa 0,0 l/m 0,00 h 0,00 h 0,000 mm 0,0 UV-I 0 W/m 0,1 km/h (0 Bft) 0,00 %
27.11.2012 23:00 14,4 C 5,5 C -22,5 C 3,9 C 0,0 C 91 % 82 % 0 lf 1005,6 hPa 0,0 l/m 0,00 h 0,00 h 0,000 mm 0,0 UV-I 0 W/m 0,0 km/h (0 Bft) 0,00 %
28.11.2012 00:00 14,4 C 5,4 C -22,5 C 4,2 C 0,0 C 92 % 82 % 0 lf 1005,3 hPa 0,0 l/m 0,00 h 0,00 h 0,000 mm 0,0 UV-I 0 W/m 0,0 km/h (0 Bft) 0,00 %
28.11.2012 01:00 14,4 C 5,2 C -22,6 C 3,9 C 0,0 C 93 % 82 % 0 lf 1005,3 hPa 0,0 l/m 0,00 h 0,00 h 0,000 mm 0,0 UV-I 0 W/m 0,0 km/h (0 Bft) 0,00 %
28.11.2012 02:00 14,3 C 5,0 C -22,6 C 3,7 C 0,0 C 93 % 82 % 0 lf 1005,2 hPa 0,0 l/m 0,00 h 0,00 h 0,000 mm 0,0 UV-I 0 W/m 0,0 km/h (0 Bft) 0,00 %
28.11.2012 03:00 14,2 C 4,3 C -22,7 C 2,3 C 0,0 C 93 % 82 % 0 lf 1005,1 hPa 0,0 l/m 0,00 h 0,00 h 0,000 mm 0,0 UV-I 0 W/m 0,0 km/h (0 Bft) 0,00 %
28.11.2012 04:00 14,2 C 4,2 C -22,6 C 3,1 C 0,0 C 94 % 82 % 0 lf 1005,3 hPa 0,0 l/m 0,00 h 0,00 h 0,000 mm 0,0 UV-I 0 W/m 0,0 km/h (0 Bft) 0,00 %
28.11.2012 05:00 14,2 C 4,5 C -22,6 C 3,8 C 0,0 C 94 % 82 % 0 lf 1005,1 hPa 0,0 l/m 0,00 h 0,00 h 0,000 mm 0,0 UV-I 0 W/m 0,0 km/h (0 Bft) 0,00 %
28.11.2012 06:00 14,2 C 4,4 C -22,6 C 3,3 C 0,0 C 95 % 82 % 0 lf 1005,0 hPa 0,0 l/m 0,00 h 0,00 h 0,000 mm 0,0 UV-I 0 W/m 0,0 km/h (0 Bft) 0,00 %
28.11.2012 07:00 14,2 C 4,0 C -22,7 C 2,4 C 0,0 C 95 % 82 % 0 lf 1005,3 hPa 0,0 l/m 0,00 h 0,00 h 0,000 mm 0,0 UV-I 0 W/m 0,0 km/h (0 Bft) 0,00 %
28.11.2012 08:00 14,1 C 4,5 C -22,6 C 3,7 C 0,0 C 96 % 83 % 0 lf 1005,8 hPa 0,0 l/m 0,00 h 0,00 h 0,000 mm 0,0 UV-I 0 W/m 2,8 km/h (1 Bft) 0,00 %
28.11.2012 09:00 14,2 C 4,7 C -22,6 C 5,0 C 0,0 C 97 % 83 % 0 lf 1005,7 hPa 0,0 l/m 0,00 h 0,00 h 0,000 mm 0,0 UV-I 0 W/m 4,8 km/h (1 Bft) 0,00 %
28.11.2012 10:00 14,2 C 4,8 C -22,5 C 6,0 C 0,0 C 97 % 83 % 0 lf 1005,8 hPa 0,0 l/m 0,00 h 0,00 h 0,000 mm 0,0 UV-I 0 W/m 2,7 km/h (1 Bft) 0,00 %
28.11.2012 11:00 14,4 C 5,6 C -22,4 C 7,1 C 0,0 C 97 % 84 % 0 lf 1006,0 hPa 0,0 l/m 0,00 h 0,00 h 0,000 mm 0,0 UV-I 0 W/m 9,1 km/h (2 Bft) 0,00 %
28.11.2012 12:00 14,3 C 6,1 C -22,4 C 6,8 C 0,0 C 97 % 84 % 0 lf 1005,6 hPa 0,0 l/m 0,00 h 0,00 h 0,000 mm 0,0 UV-I 0 W/m 10,5 km/h (2 Bft) 0,00 %
28.11.2012 13:00 14,3 C 5,8 C -22,5 C 6,3 C 0,0 C 97 % 84 % 0 lf 1005,3 hPa 0,0 l/m 0,00 h 0,00 h 0,000 mm 0,0 UV-I 0 W/m 11,7 km/h (2 Bft) 0,00 %
28.11.2012 14:00 14,3 C 5,7 C -22,5 C 6,0 C 0,0 C 97 % 84 % 0 lf 1005,3 hPa 0,0 l/m 0,00 h 0,00 h 0,000 mm 0,0 UV-I 0 W/m 12,5 km/h (3 Bft) 0,00 %
28.11.2012 15:00 14,4 C 5,3 C -22,5 C 5,3 C 0,0 C 97 % 84 % 0 lf 1005,1 hPa 0,0 l/m 0,00 h 0,00 h 0,000 mm 0,0 UV-I 0 W/m 12,3 km/h (3 Bft) 0,00 %
28.11.2012 16:00 14,2 C 5,0 C -22,5 C 4,9 C 0,0 C 97 % 84 % 0 lf 1005,0 hPa 0,0 l/m 0,00 h 0,00 h 0,000 mm 0,0 UV-I 0 W/m 6,0 km/h (2 Bft) 0,00 %
28.11.2012 17:00 14,2 C 5,2 C -22,5 C 4,8 C 0,0 C 97 % 84 % 0 lf 1004,9 hPa 0,0 l/m 0,00 h 0,00 h 0,000 mm 0,0 UV-I 0 W/m 3,3 km/h (1 Bft) 0,00 %
28.11.2012 18:00 14,2 C 5,3 C -22,5 C 4,6 C 0,0 C 97 % 84 % 0 lf 1005,0 hPa 0,0 l/m 0,00 h 0,00 h 0,000 mm 0,0 UV-I 0 W/m 7,4 km/h (2 Bft) 0,00 %
28.11.2012 19:00 14,2 C 5,3 C -22,5 C 4,5 C 0,0 C 96 % 84 % 0 lf 1004,8 hPa 0,0 l/m 0,00 h 0,00 h 0,000 mm 0,0 UV-I 0 W/m 6,6 km/h (2 Bft) 0,00 %
28.11.2012 20:00 14,1 C 5,2 C -22,5 C 4,5 C 0,0 C 96 % 84 % 0 lf 1004,9 hPa 0,0 l/m 0,00 h 0,00 h 0,000 mm 0,0 UV-I 0 W/m 5,5 km/h (1 Bft) 0,00 %
28.11.2012 21:00 14,1 C 5,3 C -22,5 C 4,5 C 0,0 C 96 % 84 % 0 lf 1004,9 hPa 0,0 l/m 0,00 h 0,00 h 0,000 mm 0,0 UV-I 0 W/m 7,5 km/h (2 Bft) 0,00 %
28.11.2012 22:00 14,1 C 5,3 C -22,5 C 4,5 C 0,0 C 96 % 84 % 0 lf 1004,6 hPa 0,0 l/m 0,00 h 0,00 h 0,000 mm 0,0 UV-I 0 W/m 8,4 km/h (2 Bft) 0,00 %
28.11.2012 23:00 14,0 C 5,4 C -22,5 C 4,5 C 0,0 C 96 % 84 % 0 lf 1004,4 hPa 0,0 l/m 0,00 h 0,00 h 0,000 mm 0,0 UV-I 0 W/m 14,1 km/h (3 Bft) 0,00 %
29.11.2012 00:00 14,0 C 5,3 C -22,5 C 4,4 C 0,0 C 96 % 84 % 0 lf 1004,0 hPa 0,0 l/m 0,00 h 0,00 h 0,000 mm 0,0 UV-I 0 W/m 17,7 km/h (3 Bft) 0,00 %
29.11.2012 01:00 13,9 C 5,2 C -22,5 C 4,2 C 0,0 C 95 % 84 % 0 lf 1004,1 hPa 0,0 l/m 0,00 h 0,00 h 0,000 mm 0,0 UV-I 0 W/m 17,3 km/h (3 Bft) 0,00 %
29.11.2012 02:00 13,9 C 4,9 C -22,6 C 3,8 C 0,0 C 93 % 84 % 0 lf 1003,9 hPa 0,0 l/m 0,00 h 0,00 h 0,000 mm 0,0 UV-I 0 W/m 17,2 km/h (3 Bft) 0,00 %
29.11.2012 03:00 14,0 C 4,8 C -22,6 C 3,6 C 0,0 C 91 % 84 % 0 lf 1003,5 hPa 0,0 l/m 0,00 h 0,00 h 0,000 mm 0,0 UV-I 0 W/m 15,0 km/h (3 Bft) 0,00 %
29.11.2012 04:00 14,0 C 4,8 C -22,6 C 3,4 C 0,0 C 88 % 84 % 0 lf 1003,3 hPa 0,0 l/m 0,00 h 0,00 h 0,000 mm 0,0 UV-I 0 W/m 11,6 km/h (2 Bft) 0,00 %
29.11.2012 05:00 13,9 C 4,5 C -22,6 C 3,2 C 0,0 C 91 % 84 % 0 lf 1003,0 hPa 0,0 l/m 0,00 h 0,00 h 0,000 mm 0,0 UV-I 0 W/m 12,3 km/h (3 Bft) 0,00 %
29.11.2012 06:00 13,8 C 3,4 C -22,8 C 1,4 C 0,0 C 92 % 83 % 0 lf 1002,8 hPa 0,0 l/m 0,00 h 0,00 h 0,000 mm 0,0 UV-I 0 W/m 6,0 km/h (2 Bft) 0,00 %
29.11.2012 07:00 13,7 C 3,1 C -22,7 C 2,0 C 0,0 C 93 % 83 % 0 lf 1003,3 hPa 0,0 l/m 0,00 h 0,00 h 0,000 mm 0,0 UV-I 0 W/m 2,7 km/h (1 Bft) 0,00 %
29.11.2012 08:00 13,7 C 3,2 C -22,7 C 2,5 C 0,0 C 94 % 83 % 0 lf 1003,5 hPa 0,0 l/m 0,00 h 0,00 h 0,000 mm 0,0 UV-I 0 W/m 5,3 km/h (1 Bft) 0,00 %
29.11.2012 09:00 13,7 C 3,4 C -22,7 C 3,2 C 0,0 C 91 % 83 % 0 lf 1003,8 hPa 0,0 l/m 0,00 h 0,00 h 0,000 mm 0,0 UV-I 0 W/m 5,4 km/h (1 Bft) 0,00 %
29.11.2012 10:00 13,7 C 3,8 C -22,6 C 3,6 C 0,0 C 90 % 84 % 0 lf 1003,8 hPa 0,0 l/m 0,00 h 0,00 h 0,000 mm 0,0 UV-I 0 W/m 12,4 km/h (3 Bft) 0,00 %
29.11.2012 11:00 13,7 C 4,2 C -22,6 C 4,4 C 0,0 C 91 % 84 % 0 lf 1004,0 hPa 0,0 l/m 0,00 h 0,00 h 0,000 mm 0,0 UV-I 0 W/m 11,4 km/h (2 Bft) 0,00 %
29.11.2012 12:00 13,8 C 4,6 C -22,5 C 4,9 C 0,0 C 92 % 84 % 0 lf 1003,9 hPa 0,0 l/m 0,00 h 0,00 h 0,000 mm 0,0 UV-I 0 W/m 13,3 km/h (3 Bft) 0,00 %
29.11.2012 13:00 13,9 C 4,8 C -22,5 C 4,9 C 0,0 C 91 % 84 % 0 lf 1004,1 hPa 0,0 l/m 0,00 h 0,00 h 0,000 mm 0,0 UV-I 0 W/m 16,7 km/h (3 Bft) 0,00 %
29.11.2012 14:00 14,0 C 4,8 C -22,5 C 4,9 C 0,0 C 89 % 84 % 0 lf 1003,9 hPa 0,0 l/m 0,00 h 0,00 h 0,000 mm 0,0 UV-I 0 W/m 16,7 km/h (3 Bft) 0,00 %
29.11.2012 15:00 14,0 C 4,9 C -22,6 C 4,0 C 0,0 C 87 % 84 % 0 lf 1003,9 hPa 0,0 l/m 0,00 h 0,00 h 0,000 mm 0,0 UV-I 0 W/m 15,0 km/h (3 Bft) 0,00 %
29.11.2012 16:00 13,9 C 4,8 C -22,6 C 3,3 C 0,0 C 85 % 83 % 0 lf 1004,4 hPa 0,0 l/m 0,00 h 0,00 h 0,000 mm 0,0 UV-I 0 W/m 11,0 km/h (2 Bft) 0,00 %
29.11.2012 17:00 13,7 C 4,5 C -22,6 C 2,7 C 0,0 C 85 % 83 % 0 lf 1004,6 hPa 0,0 l/m 0,00 h 0,00 h 0,000 mm 0,0 UV-I 0 W/m 2,5 km/h (1 Bft) 0,00 %
29.11.2012 18:00 13,6 C 3,2 C -22,9 C 0,3 C 0,0 C 86 % 82 % 0 lf 1004,9 hPa 0,0 l/m 0,00 h 0,00 h 0,000 mm 0,0 UV-I 0 W/m 0,0 km/h (0 Bft) 0,00 %
29.11.2012 19:00 13,4 C 2,2 C -22,9 C -0,6 C 0,0 C 89 % 81 % 0 lf 1005,2 hPa 0,0 l/m 0,00 h 0,00 h 0,000 mm 0,0 UV-I 0 W/m 0,0 km/h (0 Bft) 0,00 %
29.11.2012 20:00 13,3 C 2,2 C -22,9 C -0,4 C 0,0 C 91 % 81 % 0 lf 1005,4 hPa 0,0 l/m 0,00 h 0,00 h 0,000 mm 0,0 UV-I 0 W/m 0,3 km/h (0 Bft) 0,00 %
29.11.2012 21:00 13,2 C 2,4 C -22,9 C 0,0 C 0,0 C 92 % 82 % 0 lf 1005,7 hPa 0,0 l/m 0,00 h 0,00 h 0,000 mm 0,0 UV-I 0 W/m 0,3 km/h (0 Bft) 0,00 %
29.11.2012 22:00 13,3 C 2,6 C -22,8 C 1,1 C 0,0 C 93 % 82 % 0 lf 1005,9 hPa 0,0 l/m 0,00 h 0,00 h 0,000 mm 0,0 UV-I 0 W/m 0,2 km/h (0 Bft) 0,00 %
29.11.2012 23:00 13,4 C 2,9 C -22,8 C 1,7 C 0,0 C 93 % 82 % 0 lf 1005,8 hPa 0,0 l/m 0,00 h 0,00 h 0,000 mm 0,0 UV-I 0 W/m 0,4 km/h (0 Bft) 0,00 %
30.11.2012 00:00 13,3 C 2,9 C -22,8 C 1,7 C 0,0 C 94 % 82 % 0 lf 1005,9 hPa 0,0 l/m 0,00 h 0,00 h 0,000 mm 0,0 UV-I 0 W/m 0,0 km/h (0 Bft) 0,00 %
30.11.2012 01:00 13,4 C 2,8 C -22,8 C 1,6 C 0,0 C 94 % 82 % 0 lf 1006,1 hPa 0,0 l/m 0,00 h 0,00 h 0,000 mm 0,0 UV-I 0 W/m 0,0 km/h (0 Bft) 0,00 %
30.11.2012 02:00 13,2 C 2,7 C -22,8 C 1,8 C 0,0 C 95 % 83 % 0 lf 1006,2 hPa 0,0 l/m 0,00 h 0,00 h 0,000 mm 0,0 UV-I 0 W/m 0,3 km/h (0 Bft) 0,00 %
30.11.2012 03:00 13,2 C 2,7 C -22,8 C 2,1 C 0,0 C 95 % 83 % 0 lf 1006,4 hPa 0,0 l/m 0,00 h 0,00 h 0,000 mm 0,0 UV-I 0 W/m 0,2 km/h (0 Bft) 0,00 %
30.11.2012 04:00 13,2 C 2,6 C -22,8 C 1,9 C 0,0 C 95 % 83 % 0 lf 1006,5 hPa 0,0 l/m 0,00 h 0,00 h 0,000 mm 0,0 UV-I 0 W/m 0,0 km/h (0 Bft) 0,00 %
30.11.2012 05:00 13,2 C 2,2 C -22,9 C 1,1 C 0,0 C 95 % 82 % 0 lf 1006,8 hPa 0,0 l/m 0,00 h 0,00 h 0,000 mm 0,0 UV-I 0 W/m 0,0 km/h (0 Bft) 0,00 %
30.11.2012 06:00 13,1 C 2,1 C -22,9 C 1,4 C 0,0 C 96 % 82 % 0 lf 1007,2 hPa 0,0 l/m 0,00 h 0,00 h 0,000 mm 0,0 UV-I 0 W/m 0,9 km/h (0 Bft) 0,00 %
30.11.2012 07:00 13,2 C 1,8 C -22,9 C 1,2 C 0,0 C 96 % 82 % 0 lf 1007,1 hPa 0,0 l/m 0,00 h 0,00 h 0,000 mm 0,0 UV-I 0 W/m 1,9 km/h (1 Bft) 0,00 %
30.11.2012 08:00 13,1 C 1,4 C -22,9 C 1,7 C 0,0 C 96 % 82 % 0 lf 1007,6 hPa 0,0 l/m 0,00 h 0,00 h 0,000 mm 0,0 UV-I 0 W/m 1,0 km/h (0 Bft) 0,00 %
30.11.2012 09:00 13,1 C 1,4 C -22,9 C 2,5 C 0,0 C 97 % 83 % 0 lf 1008,5 hPa 0,0 l/m 0,00 h 0,00 h 0,000 mm 0,0 UV-I 0 W/m 0,2 km/h (0 Bft) 0,00 %
30.11.2012 10:00 13,2 C 1,9 C -22,7 C 3,4 C 0,0 C 97 % 83 % 0 lf 1009,2 hPa 0,0 l/m 0,00 h 0,00 h 0,000 mm 0,0 UV-I 0 W/m 0,8 km/h (0 Bft) 0,00 %
30.11.2012 11:00 13,2 C 2,5 C -22,7 C 4,4 C 0,0 C 97 % 84 % 0 lf 1009,5 hPa 0,0 l/m 0,00 h 0,00 h 0,000 mm 0,0 UV-I 0 W/m 3,1 km/h (1 Bft) 0,00 %
30.11.2012 12:00 13,1 C 2,9 C -22,7 C 4,6 C 0,0 C 96 % 84 % 0 lf 1009,6 hPa 0,0 l/m 0,00 h 0,00 h 0,000 mm 0,0 UV-I 0 W/m 2,6 km/h (1 Bft) 0,00 %
30.11.2012 13:00 13,2 C 3,4 C -22,6 C 5,0 C 0,0 C 96 % 84 % 0 lf 1009,5 hPa 0,0 l/m 0,00 h 0,00 h 0,000 mm 0,0 UV-I 0 W/m 1,9 km/h (1 Bft) 0,00 %
30.11.2012 14:00 13,3 C 3,6 C -22,6 C 4,9 C 0,0 C 94 % 84 % 0 lf 1009,5 hPa 0,0 l/m 0,00 h 0,00 h 0,000 mm 0,0 UV-I 0 W/m 2,1 km/h (1 Bft) 0,00 %
30.11.2012 15:00 13,4 C 3,5 C -22,7 C 3,5 C 0,0 C 93 % 84 % 0 lf 1009,6 hPa 0,0 l/m 0,00 h 0,00 h 0,000 mm 0,0 UV-I 0 W/m 0,4 km/h (0 Bft) 0,00 %
30.11.2012 16:00 13,2 C 2,8 C -22,9 C 1,2 C 0,0 C 93 % 83 % 0 lf 1010,0 hPa 0,0 l/m 0,00 h 0,00 h 0,000 mm 0,0 UV-I 0 W/m 0,0 km/h (0 Bft) 0,00 %
30.11.2012 17:00 13,0 C 1,5 C -23,1 C -1,0 C 0,0 C 92 % 82 % 0 lf 1010,2 hPa 0,0 l/m 0,00 h 0,00 h 0,000 mm 0,0 UV-I 0 W/m 0,0 km/h (0 Bft) 0,00 %
30.11.2012 18:00 12,8 C 0,5 C -23,1 C -1,4 C 0,0 C 93 % 81 % 0 lf 1010,3 hPa 0,0 l/m 0,00 h 0,00 h 0,000 mm 0,0 UV-I 0 W/m 0,0 km/h (0 Bft) 0,00 %
30.11.2012 19:00 12,7 C -0,1 C -23,1 C -2,2 C 0,0 C 94 % 81 % 0 lf 1010,6 hPa 0,0 l/m 0,00 h 0,00 h 0,000 mm 0,0 UV-I 0 W/m 0,0 km/h (0 Bft) 0,00 %
30.11.2012 20:00 12,7 C -0,2 C -23,1 C -2,7 C 0,0 C 95 % 81 % 0 lf 1010,8 hPa 0,0 l/m 0,00 h 0,00 h 0,000 mm 0,0 UV-I 0 W/m 0,2 km/h (0 Bft) 0,00 %
30.11.2012 21:00 12,6 C -0,2 C -23,1 C -2,8 C 0,0 C 95 % 81 % 0 lf 1011,0 hPa 0,0 l/m 0,00 h 0,00 h 0,000 mm 0,0 UV-I 0 W/m 0,0 km/h (0 Bft) 0,00 %
30.11.2012 22:00 12,4 C 0,2 C -7,5 C -1,6 C 0,0 C 96 % 79 % 0 lf 1011,4 hPa 0,0 l/m 0,00 h 0,00 h 0,000 mm 0,0 UV-I 0 W/m 2,9 km/h (1 Bft) 0,00 %
30.11.2012 23:00 12,4 C 0,6 C -23,0 C -0,8 C 0,0 C 96 % 82 % 0 lf 1011,4 hPa 0,0 l/m 0,00 h 0,00 h 0,000 mm 0,0 UV-I 0 W/m 0,9 km/h (0 Bft) 0,00 %
01.12.2012 00:00 12,5 C 1,2 C -21,1 C -0,9 C 0,0 C 97 % 0 % 0 lf 1011,3 hPa 0,0 l/m 0,00 h 0,00 h 0,000 mm 0,0 UV-I 0 W/m 2,3 km/h (1 Bft) 0,00 %
01.12.2012 01:00 12,6 C 1,6 C -22,9 C 0,3 C 0,0 C 97 % 0 % 0 lf 1011,8 hPa 0,0 l/m 0,00 h 0,00 h 0,000 mm 0,0 UV-I 0 W/m 1,1 km/h (1 Bft) 0,00 %
01.12.2012 02:00 12,6 C 1,9 C -22,9 C 0,7 C 0,0 C 97 % 0 % 0 lf 1011,6 hPa 0,0 l/m 0,00 h 0,00 h 0,000 mm 0,0 UV-I 0 W/m 4,3 km/h (1 Bft) 0,00 %
01.12.2012 03:00 12,6 C 2,2 C -10,8 C 0,8 C 0,0 C 97 % 0 % 0 lf 1011,7 hPa 0,0 l/m 0,00 h 0,00 h 0,000 mm 0,0 UV-I 0 W/m 3,7 km/h (1 Bft) 0,00 %
01.12.2012 04:00 12,5 C 2,4 C -22,8 C 0,9 C 0,0 C 97 % 0 % 0 lf 1012,0 hPa 0,0 l/m 0,00 h 0,00 h 0,000 mm 0,0 UV-I 0 W/m 8,6 km/h (2 Bft) 0,00 %
01.12.2012 05:00 12,4 C 2,3 C -22,8 C 0,7 C 0,0 C 97 % 0 % 0 lf 1012,0 hPa 0,0 l/m 0,00 h 0,00 h 0,000 mm 0,0 UV-I 0 W/m 12,3 km/h (3 Bft) 0,00 %
01.12.2012 06:00 12,4 C 2,5 C 4,7 C 0,7 C 0,0 C 97 % 0 % 0 lf 1011,9 hPa 0,2 l/m 0,00 h 0,00 h 0,000 mm 0,0 UV-I 0 W/m 5,3 km/h (1 Bft) 0,00 %
01.12.2012 07:00 12,4 C 2,4 C -22,8 C 0,8 C 0,0 C 97 % 0 % 0 lf 1012,0 hPa 0,1 l/m 0,00 h 0,00 h 0,000 mm 0,0 UV-I 0 W/m 4,8 km/h (1 Bft) 0,00 %
01.12.2012 08:00 12,4 C 2,5 C -22,8 C 0,9 C 0,0 C 97 % 0 % 0 lf 1012,2 hPa 0,0 l/m 0,00 h 0,00 h 0,000 mm 0,0 UV-I 0 W/m 5,8 km/h (2 Bft) 0,00 %
01.12.2012 09:00 12,4 C 2,6 C -22,8 C 1,2 C 0,0 C 97 % 0 % 0 lf 1012,5 hPa 0,0 l/m 0,00 h 0,00 h 0,000 mm 0,0 UV-I 0 W/m 7,9 km/h (2 Bft) 0,00 %
01.12.2012 10:00 12,3 C 3,1 C -22,6 C 1,8 C 0,0 C 97 % 0 % 0 lf 1012,8 hPa 0,0 l/m 0,00 h 0,00 h 0,000 mm 0,0 UV-I 0 W/m 8,1 km/h (2 Bft) 0,00 %
01.12.2012 11:00 12,4 C 3,5 C -22,6 C 2,7 C 0,0 C 96 % 0 % 0 lf 1012,7 hPa 0,0 l/m 0,00 h 0,00 h 0,000 mm 0,0 UV-I 0 W/m 9,1 km/h (2 Bft) 0,00 %
01.12.2012 12:00 12,5 C 3,6 C -22,7 C 2,7 C 0,0 C 95 % 0 % 0 lf 1012,4 hPa 0,0 l/m 0,00 h 0,00 h 0,000 mm 0,0 UV-I 0 W/m 8,6 km/h (2 Bft) 0,00 %
01.12.2012 13:00 12,7 C 3,9 C -22,6 C 3,0 C 0,0 C 94 % 0 % 0 lf 1012,2 hPa 0,0 l/m 0,00 h 0,00 h 0,000 mm 0,0 UV-I 0 W/m 10,3 km/h (2 Bft) 0,00 %
01.12.2012 14:00 12,8 C 4,0 C -22,7 C 2,7 C 0,0 C 91 % 0 % 0 lf 1012,1 hPa 0,0 l/m 0,00 h 0,00 h 0,000 mm 0,0 UV-I 0 W/m 12,3 km/h (3 Bft) 0,00 %
01.12.2012 15:00 12,5 C 3,6 C -22,6 C 1,9 C 0,0 C 89 % 0 % 0 lf 1011,7 hPa 0,0 l/m 0,00 h 0,00 h 0,000 mm 0,0 UV-I 0 W/m 11,7 km/h (2 Bft) 0,00 %
01.12.2012 16:00 12,4 C 3,3 C -22,7 C 1,2 C 0,0 C 89 % 0 % 0 lf 1011,1 hPa 0,0 l/m 0,00 h 0,00 h 0,000 mm 0,0 UV-I 0 W/m 8,5 km/h (2 Bft) 0,00 %
01.12.2012 17:00 12,3 C 3,1 C -22,8 C 0,7 C 0,0 C 90 % 0 % 0 lf 1010,7 hPa 0,0 l/m 0,00 h 0,00 h 0,000 mm 0,0 UV-I 0 W/m 7,8 km/h (2 Bft) 0,00 %
01.12.2012 18:00 12,2 C 2,8 C 1,2 C 0,4 C 0,0 C 90 % 0 % 0 lf 1010,2 hPa 0,1 l/m 0,00 h 0,00 h 0,000 mm 0,0 UV-I 0 W/m 11,2 km/h (2 Bft) 0,00 %
01.12.2012 19:00 12,2 C 2,3 C -14,2 C 0,1 C 0,0 C 92 % 0 % 0 lf 1009,6 hPa 0,0 l/m 0,00 h 0,00 h 0,000 mm 0,0 UV-I 0 W/m 10,9 km/h (2 Bft) 0,00 %
01.12.2012 20:00 12,1 C 1,8 C 28,7 C -0,5 C 0,0 C 93 % 0 % 0 lf 1008,9 hPa 0,6 l/m 0,00 h 0,00 h 0,000 mm 0,0 UV-I 0 W/m 7,9 km/h (2 Bft) 0,00 %
01.12.2012 21:00 12,0 C 1,1 C -0,5 C -1,1 C 0,0 C 95 % 0 % 0 lf 1008,4 hPa 0,7 l/m 0,00 h 0,00 h 0,000 mm 0,0 UV-I 0 W/m 8,7 km/h (2 Bft) 0,00 %
01.12.2012 22:00 12,0 C 1,7 C -19,5 C -0,7 C 0,0 C 95 % 0 % 0 lf 1008,1 hPa 1,0 l/m 0,00 h 0,00 h 0,000 mm 0,0 UV-I 0 W/m 10,3 km/h (2 Bft) 0,00 %
01.12.2012 23:00 11,9 C 2,2 C 8,1 C -0,1 C 0,0 C 96 % 0 % 0 lf 1007,8 hPa 0,5 l/m 0,00 h 0,00 h 0,000 mm 0,0 UV-I 0 W/m 12,0 km/h (2 Bft) 0,00 %
02.12.2012 00:00 11,9 C 2,5 C -19,2 C 0,4 C 0,0 C 96 % 0 % 0 lf 1007,5 hPa 0,0 l/m 0,00 h 0,00 h 0,000 mm 0,0 UV-I 0 W/m 13,2 km/h (3 Bft) 0,00 %
02.12.2012 01:00 11,9 C 2,7 C -14,2 C 0,7 C 0,0 C 96 % 0 % 0 lf 1007,1 hPa 0,0 l/m 0,00 h 0,00 h 0,000 mm 0,0 UV-I 0 W/m 13,1 km/h (3 Bft) 0,00 %
02.12.2012 02:00 11,9 C 2,4 C -19,4 C 0,6 C 0,0 C 96 % 0 % 0 lf 1006,9 hPa 0,0 l/m 0,00 h 0,00 h 0,000 mm 0,0 UV-I 0 W/m 14,2 km/h (3 Bft) 0,00 %
02.12.2012 03:00 11,9 C 2,5 C -9,0 C 0,7 C 0,0 C 97 % 0 % 0 lf 1006,5 hPa 0,2 l/m 0,00 h 0,00 h 0,000 mm 0,0 UV-I 0 W/m 10,8 km/h (2 Bft) 0,00 %
02.12.2012 04:00 12,0 C 2,7 C 8,1 C 1,0 C 0,0 C 97 % 0 % 0 lf 1006,3 hPa 0,2 l/m 0,00 h 0,00 h 0,000 mm 0,0 UV-I 0 W/m 13,0 km/h (3 Bft) 0,00 %
02.12.2012 05:00 12,0 C 2,2 C 16,7 C 0,7 C 0,0 C 96 % 0 % 0 lf 1006,5 hPa 0,4 l/m 0,00 h 0,00 h 0,000 mm 0,0 UV-I 0 W/m 11,1 km/h (2 Bft) 0,00 %
02.12.2012 06:00 12,0 C 2,0 C 23,6 C 0,5 C 0,0 C 97 % 0 % 0 lf 1007,0 hPa 0,4 l/m 0,00 h 0,00 h 0,000 mm 0,0 UV-I 0 W/m 12,1 km/h (2 Bft) 0,00 %
02.12.2012 07:00 12,0 C 1,9 C -5,6 C 0,4 C 0,0 C 97 % 0 % 0 lf 1007,4 hPa 0,1 l/m 0,00 h 0,00 h 0,000 mm 0,0 UV-I 0 W/m 11,2 km/h (2 Bft) 0,00 %
02.12.2012 08:00 11,9 C 2,1 C 1,2 C 0,3 C 0,0 C 97 % 0 % 0 lf 1008,0 hPa 1,1 l/m 0,00 h 0,00 h 0,000 mm 0,0 UV-I 0 W/m 13,7 km/h (3 Bft) 0,00 %
02.12.2012 09:00 12,0 C 2,3 C -22,9 C 0,5 C 0,0 C 98 % 0 % 0 lf 1008,3 hPa 0,1 l/m 0,00 h 0,00 h 0,000 mm 0,0 UV-I 0 W/m 10,4 km/h (2 Bft) 0,00 %
02.12.2012 10:00 11,9 C 2,9 C -22,8 C 1,3 C 0,0 C 97 % 0 % 0 lf 1008,8 hPa 0,0 l/m 0,00 h 0,00 h 0,000 mm 0,0 UV-I 0 W/m 14,9 km/h (3 Bft) 0,00 %
02.12.2012 11:00 12,0 C 3,7 C -22,7 C 1,5 C 0,1 C 96 % 0 % 0 lf 1009,3 hPa 0,0 l/m 0,00 h 0,00 h 0,000 mm 0,1 UV-I 0 W/m 14,3 km/h (3 Bft) 0,00 %
02.12.2012 12:00 12,2 C 4,6 C -22,6 C 2,6 C 0,2 C 94 % 0 % 0 lf 1009,5 hPa 0,0 l/m 0,00 h 0,00 h 0,000 mm 0,2 UV-I 0 W/m 16,0 km/h (3 Bft) 0,00 %
02.12.2012 13:00 12,6 C 5,4 C -22,5 C 3,4 C 0,2 C 91 % 0 % 0 lf 1009,7 hPa 0,0 l/m 0,00 h 0,00 h 0,000 mm 0,2 UV-I 0 W/m 14,7 km/h (3 Bft) 0,00 %
02.12.2012 14:00 13,0 C 5,3 C -22,5 C 3,6 C 0,0 C 89 % 0 % 0 lf 1010,2 hPa 0,0 l/m 0,00 h 0,00 h 0,000 mm 0,0 UV-I 0 W/m 13,9 km/h (3 Bft) 0,00 %
02.12.2012 15:00 12,8 C 5,0 C -22,5 C 3,3 C 0,0 C 90 % 0 % 0 lf 1010,3 hPa 0,0 l/m 0,00 h 0,00 h 0,000 mm 0,0 UV-I 0 W/m 9,6 km/h (2 Bft) 0,00 %
02.12.2012 16:00 12,7 C 4,5 C -22,6 C 2,0 C 0,0 C 91 % 0 % 0 lf 1011,0 hPa 0,0 l/m 0,00 h 0,00 h 0,000 mm 0,0 UV-I 0 W/m 8,5 km/h (2 Bft) 0,00 %
02.12.2012 17:00 12,4 C 4,3 C -22,6 C 1,8 C 0,0 C 91 % 0 % 0 lf 1011,6 hPa 0,0 l/m 0,00 h 0,00 h 0,000 mm 0,0 UV-I 0 W/m 9,8 km/h (2 Bft) 0,00 %
02.12.2012 18:00 12,4 C 3,7 C -22,7 C 0,8 C 0,0 C 92 % 0 % 0 lf 1012,0 hPa 0,0 l/m 0,00 h 0,00 h 0,000 mm 0,0 UV-I 0 W/m 9,9 km/h (2 Bft) 0,00 %
02.12.2012 19:00 12,2 C 3,2 C -22,8 C 0,0 C 0,0 C 94 % 0 % 0 lf 1012,6 hPa 0,0 l/m 0,00 h 0,00 h 0,000 mm 0,0 UV-I 0 W/m 13,4 km/h (3 Bft) 0,00 %
02.12.2012 20:00 12,2 C 3,0 C -22,8 C 0,5 C 0,0 C 94 % 0 % 0 lf 1013,5 hPa 0,0 l/m 0,00 h 0,00 h 0,000 mm 0,0 UV-I 0 W/m 9,8 km/h (2 Bft) 0,00 %
02.12.2012 21:00 12,2 C 2,8 C -22,8 C 0,8 C 0,0 C 95 % 0 % 0 lf 1013,9 hPa 0,0 l/m 0,00 h 0,00 h 0,000 mm 0,0 UV-I 0 W/m 6,7 km/h (2 Bft) 0,00 %
02.12.2012 22:00 12,2 C 2,9 C -22,8 C 1,1 C 0,0 C 95 % 0 % 0 lf 1014,4 hPa 0,0 l/m 0,00 h 0,00 h 0,000 mm 0,0 UV-I 0 W/m 3,8 km/h (1 Bft) 0,00 %
02.12.2012 23:00 12,3 C 2,7 C -22,9 C 0,5 C 0,0 C 95 % 0 % 0 lf 1014,7 hPa 0,0 l/m 0,00 h 0,00 h 0,000 mm 0,0 UV-I 0 W/m 1,8 km/h (1 Bft) 0,00 %
Min-Datum _ 01.12.12 30.11.12 30.11.12 30.11.12 26.11.12 27.11.12 01.12.12 26.11.12 26.11.12 - - - - - - 26.11.12 26.11.12
_ Min-Zeit 22:48 21:42 17:18 21:34 00:00 14:56 00:00 00:00 18:20 - - - - - - 00:16 00:00
Minimum _ 11,8 C -0,4 C -23,1 C -2,9 C 0,0 C 71 % 0 % 0 lf 1001,1 hPa - - - - - - 0,0 km/h (0 Bft) 0,00 %
Max-Datum _ 27.11.12 27.11.12 26.11.12 27.11.12 02.12.12 28.11.12 27.11.12 26.11.12 02.12.12 26.11.12 26.11.12 26.11.12 26.11.12 02.12.12 26.11.12 01.12.12 26.11.12
_ Max-Zeit 15:14 14:26 12:36 13:06 12:00 11:54 13:08 00:00 23:58 10:38 00:00 00:00 00:00 12:00 00:00 19:58 00:00
Maximum _ 16,1 C 10,9 C 29,0 C 8,7 C 0,3 C 98 % 85 % 0 lf 1014,9 hPa 2,8 l/m 0,00 h 0,00 h 0,000 mm 0,3 UV-I 0 W/m 45,6 km/h
O-NO (6 Bft)
0,00 %
Durchschnitt _ 13,5 C 4,5 C -19,7 C 3,1 C 0,0 C 93 % 59 % 0 lf 1006,8 hPa #10,8 l/m #0 min. #0 min. #0,000 mm 0,2 UV-I 0 W/m 6,3 km/h (2 Bft) 0,00 %
© 2012 W. Hausmann